createdAt,value
2023-03-16T00:02:04.004Z,12.73
2023-03-16T00:04:37.741Z,12.48
2023-03-16T00:07:07.125Z,10.23
2023-03-16T00:09:33.949Z,8.70
2023-03-16T00:12:03.770Z,8.73
2023-03-16T00:14:34.051Z,11.40
2023-03-16T00:17:01.743Z,11.63
2023-03-16T00:19:28.540Z,12.30
2023-03-16T00:21:55.274Z,11.50
2023-03-16T00:24:25.162Z,11.03
2023-03-16T00:26:55.062Z,12.27
2023-03-16T00:29:22.846Z,13.65
2023-03-16T00:31:49.627Z,13.25
2023-03-16T00:34:16.765Z,12.17
2023-03-16T00:36:43.649Z,11.07
2023-03-16T00:39:11.945Z,12.70
2023-03-16T00:41:38.638Z,13.77
2023-03-16T00:44:06.082Z,13.43
2023-03-16T00:46:33.168Z,12.80
2023-03-16T00:51:26.525Z,11.73
2023-03-16T00:53:53.227Z,12.03
2023-03-16T00:56:20.026Z,11.33
2023-03-16T00:58:46.711Z,11.23
2023-03-16T01:01:16.578Z,10.37
2023-03-16T01:03:47.262Z,12.00
2023-03-16T01:06:17.369Z,11.57
2023-03-16T01:08:45.052Z,12.67
2023-03-16T01:11:16.558Z,13.13
2023-03-16T01:13:43.661Z,12.40
2023-03-16T01:16:11.224Z,12.27
2023-03-16T01:18:37.882Z,11.37
2023-03-16T01:21:13.995Z,12.37
2023-03-16T01:23:41.197Z,11.50
2023-03-16T01:26:08.547Z,12.03
2023-03-16T01:28:35.353Z,13.43
2023-03-16T01:31:08.337Z,13.73
2023-03-16T01:33:36.581Z,13.67
2023-03-16T01:36:07.831Z,13.17
2023-03-16T01:38:34.880Z,13.43
2023-03-16T01:41:02.251Z,13.47
2023-03-16T01:43:31.880Z,16.60
2023-03-16T01:46:00.829Z,14.70
2023-03-16T01:48:28.145Z,16.77
2023-03-16T01:50:56.766Z,17.50
2023-03-16T01:53:27.066Z,16.53
2023-03-16T01:55:55.495Z,16.77
2023-03-16T01:58:23.194Z,18.73
2023-03-16T02:00:50.109Z,16.47
2023-03-16T02:03:19.899Z,16.30
2023-03-16T02:05:54.022Z,18.10
2023-03-16T02:08:23.235Z,17.48
2023-03-16T02:10:50.234Z,18.70
2023-03-16T02:13:16.963Z,18.37
2023-03-16T02:15:43.724Z,18.07
2023-03-16T02:18:11.189Z,17.20
2023-03-16T02:20:54.847Z,17.23
2023-03-16T02:23:24.667Z,16.27
2023-03-16T02:26:01.763Z,17.63
2023-03-16T02:28:38.374Z,16.10
2023-03-16T02:31:06.174Z,16.90
2023-03-16T02:33:34.135Z,17.30
2023-03-16T02:36:01.835Z,15.53
2023-03-16T02:38:28.584Z,15.87
2023-03-16T02:41:02.152Z,13.73
2023-03-16T02:43:35.064Z,13.83
2023-03-16T02:46:05.544Z,14.73
2023-03-16T02:48:45.511Z,13.93
2023-03-16T02:51:12.764Z,13.70
2023-03-16T02:53:39.657Z,12.87
2023-03-16T02:56:07.056Z,11.37
2023-03-16T02:58:34.003Z,13.63
2023-03-16T03:01:02.928Z,13.23
2023-03-16T03:03:37.279Z,12.57
2023-03-16T03:06:05.078Z,12.80
2023-03-16T03:08:33.057Z,13.87
2023-03-16T03:13:27.006Z,14.13
2023-03-16T03:15:53.965Z,14.10
2023-03-16T03:18:21.055Z,14.27
2023-03-16T03:20:48.387Z,15.53
2023-03-16T03:23:17.225Z,15.20
2023-03-16T03:25:44.102Z,15.67
2023-03-16T03:28:11.616Z,14.73
2023-03-16T03:30:38.287Z,14.77
2023-03-16T03:33:05.110Z,14.03
2023-03-16T03:35:32.066Z,15.60
2023-03-16T03:37:58.888Z,16.13
2023-03-16T03:40:26.444Z,15.67
2023-03-16T03:42:53.315Z,15.10
2023-03-16T03:45:20.845Z,13.70
2023-03-16T03:47:47.765Z,13.73
2023-03-16T03:50:14.819Z,13.87
2023-03-16T03:52:42.147Z,14.33
2023-03-16T03:55:10.000Z,14.70
2023-03-16T03:57:37.426Z,15.00
2023-03-16T04:00:13.643Z,14.37
2023-03-16T04:02:40.943Z,16.07
2023-03-16T04:05:08.794Z,15.20
2023-03-16T04:07:35.549Z,15.63
2023-03-16T04:10:02.679Z,16.00
2023-03-16T04:12:29.405Z,16.97
2023-03-16T04:14:56.045Z,15.67
2023-03-16T04:17:23.966Z,16.50
2023-03-16T04:19:50.691Z,15.87
2023-03-16T04:22:17.437Z,17.23
2023-03-16T04:24:44.725Z,16.53
2023-03-16T04:27:12.239Z,17.40
2023-03-16T04:29:39.268Z,17.17
2023-03-16T04:32:07.505Z,17.43
2023-03-16T04:34:34.721Z,17.57
2023-03-16T04:37:02.528Z,17.07
2023-03-16T04:39:29.294Z,17.13
2023-03-16T04:41:56.064Z,15.73
2023-03-16T04:44:23.091Z,17.87
2023-03-16T04:46:49.747Z,16.03
2023-03-16T04:49:16.900Z,16.83
2023-03-16T04:51:43.542Z,15.57
2023-03-16T04:54:11.533Z,17.73
2023-03-16T04:56:41.616Z,17.90
2023-03-16T04:59:09.907Z,18.00
2023-03-16T05:01:39.712Z,18.43
2023-03-16T05:04:06.767Z,18.47
2023-03-16T05:06:33.472Z,18.60
2023-03-16T05:09:01.813Z,17.20
2023-03-16T05:11:28.831Z,17.70
2023-03-16T05:13:55.610Z,18.80
2023-03-16T05:16:22.385Z,18.47
2023-03-16T05:18:49.297Z,16.98
2023-03-16T05:21:16.860Z,15.73
2023-03-16T05:23:43.547Z,17.63
2023-03-16T05:26:10.276Z,17.07
2023-03-16T05:28:37.001Z,15.37
2023-03-16T05:31:04.061Z,16.63
2023-03-16T05:33:30.980Z,16.33
2023-03-16T05:35:58.260Z,16.97
2023-03-16T05:38:25.343Z,16.70
2023-03-16T05:40:53.295Z,17.63
2023-03-16T05:43:21.045Z,18.90
2023-03-16T05:45:47.914Z,16.97
2023-03-16T05:48:18.360Z,18.50
2023-03-16T05:50:45.014Z,19.27
2023-03-16T05:53:11.688Z,18.40
2023-03-16T05:55:38.340Z,19.13
2023-03-16T05:58:05.975Z,18.83
2023-03-16T06:00:32.991Z,19.70
2023-03-16T06:05:28.782Z,22.87
2023-03-16T06:07:55.825Z,20.53
2023-03-16T06:10:22.573Z,19.47
2023-03-16T06:12:49.345Z,20.20
2023-03-16T06:15:16.257Z,20.40
2023-03-16T06:17:43.115Z,20.60
2023-03-16T06:20:13.254Z,18.63
2023-03-16T06:22:41.628Z,20.77
2023-03-16T06:25:10.133Z,19.27
2023-03-16T06:27:37.512Z,18.67
2023-03-16T06:30:06.525Z,20.27
2023-03-16T06:32:33.315Z,21.37
2023-03-16T06:35:02.048Z,22.70
2023-03-16T06:37:29.870Z,21.47
2023-03-16T06:39:57.150Z,20.73
2023-03-16T06:42:24.336Z,21.53
2023-03-16T06:44:52.499Z,21.77
2023-03-16T06:47:20.116Z,19.23
2023-03-16T06:49:47.327Z,22.20
2023-03-16T06:52:14.979Z,20.23
2023-03-16T06:54:41.857Z,16.43
2023-03-16T06:57:09.093Z,18.07
2023-03-16T06:59:36.099Z,17.83
2023-03-16T07:02:03.152Z,17.93
2023-03-16T07:04:32.982Z,15.73
2023-03-16T07:09:28.365Z,17.13
2023-03-16T07:11:55.132Z,17.87
2023-03-16T07:14:23.529Z,17.42
2023-03-16T07:16:50.950Z,16.02
2023-03-16T07:19:20.551Z,17.80
2023-03-16T07:21:52.013Z,16.25
2023-03-16T07:24:18.930Z,16.73
2023-03-16T07:26:46.609Z,15.55
2023-03-16T07:29:14.573Z,16.85
2023-03-16T07:31:41.293Z,14.32
2023-03-16T07:34:08.096Z,14.98
2023-03-16T07:36:35.989Z,14.98
2023-03-16T07:39:03.278Z,14.73
2023-03-16T07:41:33.167Z,15.95
2023-03-16T07:46:27.140Z,13.88
2023-03-16T07:48:53.886Z,14.45
2023-03-16T07:51:21.518Z,14.38
2023-03-16T07:53:48.199Z,13.10
2023-03-16T07:56:15.123Z,13.40
2023-03-16T07:58:42.072Z,14.02
2023-03-16T08:01:11.121Z,12.70
2023-03-16T08:03:42.292Z,13.68
2023-03-16T08:06:09.069Z,13.73
2023-03-16T08:08:35.864Z,13.38
2023-03-16T08:11:02.631Z,13.27
2023-03-16T08:13:30.487Z,12.48
2023-03-16T08:18:26.795Z,13.60
2023-03-16T08:20:55.026Z,12.07
2023-03-16T08:23:22.583Z,11.82
2023-03-16T08:25:52.624Z,11.63
2023-03-16T08:28:21.839Z,11.95
2023-03-16T08:30:51.179Z,10.45
2023-03-16T08:33:22.558Z,11.23
2023-03-16T08:35:49.859Z,10.45
2023-03-16T08:38:16.600Z,10.13
2023-03-16T08:40:48.662Z,9.32
2023-03-16T08:43:17.543Z,10.77
2023-03-16T08:45:47.762Z,11.27
2023-03-16T08:48:15.462Z,10.13
2023-03-16T08:50:47.186Z,10.48
2023-03-16T08:53:14.810Z,10.68
2023-03-16T08:55:42.045Z,9.73
2023-03-16T08:58:11.990Z,10.07
2023-03-16T09:00:39.291Z,9.43
2023-03-16T09:03:07.106Z,9.20
2023-03-16T09:05:34.989Z,9.60
2023-03-16T09:08:01.966Z,9.70
2023-03-16T09:10:29.277Z,10.57
2023-03-16T09:12:56.847Z,10.57
2023-03-16T09:15:23.969Z,9.82
2023-03-16T09:17:50.663Z,10.85
2023-03-16T09:20:34.975Z,10.93
2023-03-16T09:23:01.877Z,10.30
2023-03-16T09:25:28.839Z,10.55
2023-03-16T09:27:55.821Z,10.43
2023-03-16T09:30:22.649Z,10.48
2023-03-16T09:32:50.603Z,10.13
2023-03-16T09:35:17.681Z,9.90
2023-03-16T09:38:01.143Z,9.27
2023-03-16T09:40:29.497Z,9.40
2023-03-16T09:43:02.074Z,8.48
2023-03-16T09:45:57.805Z,9.13
2023-03-16T09:48:31.078Z,9.30
2023-03-16T09:50:59.490Z,9.02
2023-03-16T09:53:35.523Z,8.93
2023-03-16T09:56:09.502Z,8.55
2023-03-16T09:58:37.035Z,8.65
2023-03-16T10:01:07.820Z,9.70
2023-03-16T10:03:52.194Z,8.57
2023-03-16T10:06:20.248Z,8.98
2023-03-16T10:09:02.035Z,7.72
2023-03-16T10:11:57.003Z,8.05
2023-03-16T10:14:54.338Z,8.43
2023-03-16T10:17:29.205Z,9.55
2023-03-16T10:20:01.994Z,7.78
2023-03-16T10:22:39.395Z,7.45
2023-03-16T10:25:17.095Z,7.15
2023-03-16T10:27:46.408Z,7.43
2023-03-16T10:30:19.960Z,7.55
2023-03-16T10:32:47.601Z,7.20
2023-03-16T10:35:28.514Z,7.20
2023-03-16T10:37:56.839Z,7.10
2023-03-16T10:40:23.724Z,7.85
2023-03-16T10:42:50.596Z,7.65
2023-03-16T10:45:26.748Z,8.05
2023-03-16T10:47:54.355Z,8.27
2023-03-16T10:50:27.489Z,7.32
2023-03-16T10:52:57.115Z,7.05
2023-03-16T10:55:32.942Z,6.72
2023-03-16T10:58:08.014Z,6.15
2023-03-16T11:00:43.621Z,6.93
2023-03-16T11:03:37.111Z,6.43
2023-03-16T11:06:07.018Z,6.15
2023-03-16T11:08:41.580Z,6.18
2023-03-16T11:11:16.985Z,5.85
2023-03-16T11:13:46.488Z,5.93
2023-03-16T11:16:31.865Z,6.10
2023-03-16T11:19:04.903Z,5.85
2023-03-16T11:22:02.142Z,5.93
2023-03-16T11:24:52.823Z,7.07
2023-03-16T11:28:02.454Z,6.38
2023-03-16T11:31:02.265Z,6.35
2023-03-16T11:33:31.420Z,5.97
2023-03-16T11:36:02.123Z,6.32
2023-03-16T11:38:49.467Z,6.63
2023-03-16T11:41:43.147Z,5.85
2023-03-16T11:44:22.448Z,6.18
2023-03-16T11:47:02.145Z,7.13
2023-03-16T11:49:52.098Z,6.57
2023-03-16T11:52:46.441Z,5.53
2023-03-16T11:55:24.749Z,5.68
2023-03-16T11:57:51.886Z,4.95
2023-03-16T12:00:24.825Z,5.38
2023-03-16T12:03:02.211Z,5.00
2023-03-16T12:05:35.080Z,5.32
2023-03-16T12:08:26.826Z,5.47
2023-03-16T12:11:01.134Z,4.75
2023-03-16T12:13:32.742Z,4.93
2023-03-16T12:16:01.205Z,5.57
2023-03-16T12:18:39.256Z,5.00
2023-03-16T12:21:20.439Z,4.82
2023-03-16T12:24:02.201Z,4.60
2023-03-16T12:26:34.934Z,5.13
2023-03-16T12:29:17.696Z,5.03
2023-03-16T12:31:54.302Z,5.07
2023-03-16T12:34:48.149Z,4.80
2023-03-16T12:37:19.706Z,5.10
2023-03-16T12:39:56.153Z,4.65
2023-03-16T12:42:43.820Z,4.93
2023-03-16T12:45:37.617Z,4.55
2023-03-16T12:48:22.118Z,4.72
2023-03-16T12:50:51.411Z,4.20
2023-03-16T12:53:56.230Z,3.90
2023-03-16T12:56:36.187Z,3.97
2023-03-16T12:59:06.688Z,4.65
2023-03-16T13:01:44.051Z,4.07
2023-03-16T13:04:23.790Z,4.35
2023-03-16T13:07:03.316Z,4.28
2023-03-16T13:09:34.250Z,4.68
2023-03-16T13:12:02.116Z,5.10
2023-03-16T13:14:34.958Z,4.55
2023-03-16T13:17:17.516Z,4.80
2023-03-16T13:19:47.896Z,3.97
2023-03-16T13:22:26.244Z,4.68
2023-03-16T13:25:02.200Z,4.50
2023-03-16T13:27:33.641Z,4.40
2023-03-16T13:30:02.356Z,4.85
2023-03-16T13:32:33.837Z,4.30
2023-03-16T13:35:04.827Z,4.97
2023-03-16T13:37:32.459Z,4.22
2023-03-16T13:40:02.146Z,5.25
2023-03-16T13:42:33.775Z,4.80
2023-03-16T13:45:02.205Z,4.72
2023-03-16T13:47:29.124Z,4.43
2023-03-16T13:49:59.050Z,4.40
2023-03-16T13:52:30.938Z,3.65
2023-03-16T13:54:59.859Z,4.15
2023-03-16T13:57:29.899Z,4.25
2023-03-16T14:00:01.205Z,3.90
2023-03-16T14:02:28.067Z,3.97
2023-03-16T14:04:55.124Z,4.53
2023-03-16T14:07:24.773Z,4.10
2023-03-16T14:09:52.611Z,4.35
2023-03-16T14:12:20.193Z,5.10
2023-03-16T14:14:51.211Z,4.25
2023-03-16T14:17:21.517Z,3.65
2023-03-16T14:19:51.170Z,3.67
2023-03-16T14:22:31.128Z,4.07
2023-03-16T14:27:39.519Z,4.22
2023-03-16T14:30:27.097Z,4.20
2023-03-16T14:32:58.680Z,3.90
2023-03-16T14:35:28.953Z,3.95
2023-03-16T14:37:57.250Z,4.05
2023-03-16T14:40:30.996Z,3.60
2023-03-16T14:45:33.931Z,4.40
2023-03-16T14:48:02.316Z,4.13
2023-03-16T14:50:29.232Z,4.30
2023-03-16T14:52:57.049Z,4.65
2023-03-16T14:55:25.009Z,3.90
2023-03-16T14:57:51.852Z,4.10
2023-03-16T15:00:22.364Z,4.30
2023-03-16T15:02:58.198Z,4.32
2023-03-16T15:05:36.608Z,4.45
2023-03-16T15:08:05.745Z,4.13
2023-03-16T15:10:35.441Z,4.20
2023-03-16T15:13:12.988Z,4.00
2023-03-16T15:15:44.265Z,4.30
2023-03-16T15:18:11.100Z,3.78
2023-03-16T15:20:43.928Z,4.30
2023-03-16T15:23:15.893Z,4.55
2023-03-16T15:25:47.335Z,4.50
2023-03-16T15:28:14.085Z,4.32
2023-03-16T15:30:41.150Z,4.32
2023-03-16T15:33:10.530Z,4.65
2023-03-16T15:35:37.704Z,4.30
2023-03-16T15:38:18.384Z,4.53
2023-03-16T15:40:47.919Z,3.95
2023-03-16T15:43:18.785Z,4.30
2023-03-16T15:45:47.424Z,4.65
2023-03-16T15:48:15.118Z,4.05
2023-03-16T15:50:47.033Z,4.30
2023-03-16T15:53:30.908Z,4.32
2023-03-16T15:56:01.455Z,3.83
2023-03-16T15:58:32.808Z,3.90
2023-03-16T16:01:02.725Z,3.97
2023-03-16T16:03:29.970Z,3.90
2023-03-16T16:05:57.033Z,3.75
2023-03-16T16:08:23.766Z,3.67
2023-03-16T16:10:50.813Z,3.72
2023-03-16T16:13:31.181Z,3.10
2023-03-16T16:16:04.967Z,3.90
2023-03-16T16:18:35.528Z,3.17
2023-03-16T16:21:05.468Z,3.65
2023-03-16T16:23:33.560Z,3.17
2023-03-16T16:26:02.272Z,3.30
2023-03-16T16:28:33.345Z,3.00
2023-03-16T16:31:02.553Z,3.53
2023-03-16T16:33:36.036Z,3.70
2023-03-16T16:36:06.259Z,3.83
2023-03-16T16:38:34.308Z,3.17
2023-03-16T16:41:01.294Z,2.63
2023-03-16T16:43:41.353Z,3.83
2023-03-16T16:46:26.244Z,2.97
2023-03-16T16:49:04.161Z,3.40
2023-03-16T16:51:34.662Z,3.00
2023-03-16T16:54:02.440Z,3.70
2023-03-16T16:56:42.073Z,3.05
2023-03-16T16:59:19.121Z,3.40
2023-03-16T17:01:54.267Z,3.40
2023-03-16T17:04:24.857Z,3.28
2023-03-16T17:06:55.767Z,3.47
2023-03-16T17:09:23.665Z,3.28
2023-03-16T17:11:51.483Z,3.10
2023-03-16T17:14:20.626Z,3.53
2023-03-16T17:16:48.583Z,3.67
2023-03-16T17:19:28.186Z,3.33
2023-03-16T17:21:57.798Z,3.88
2023-03-16T17:24:25.174Z,3.70
2023-03-16T17:29:34.374Z,3.70
2023-03-16T17:32:01.335Z,4.18
2023-03-16T17:34:29.979Z,3.90
2023-03-16T17:36:56.680Z,4.35
2023-03-16T17:39:31.904Z,4.65
2023-03-16T17:42:02.323Z,4.50
2023-03-16T17:44:34.826Z,4.05
2023-03-16T17:47:03.423Z,4.20
2023-03-16T17:49:32.213Z,4.28
2023-03-16T17:51:59.338Z,4.15
2023-03-16T17:54:26.271Z,4.30
2023-03-16T17:56:56.107Z,4.97
2023-03-16T17:59:23.557Z,3.85
2023-03-16T18:01:50.494Z,4.32
2023-03-16T18:04:27.685Z,4.40
2023-03-16T18:06:55.656Z,4.45
2023-03-16T18:09:22.367Z,4.30
2023-03-16T18:11:51.056Z,4.68
2023-03-16T18:14:35.206Z,5.22
2023-03-16T18:17:07.918Z,4.47
2023-03-16T18:19:34.925Z,4.47
2023-03-16T18:22:01.749Z,4.85
2023-03-16T18:24:28.489Z,5.65
2023-03-16T18:26:55.765Z,4.60
2023-03-16T18:29:22.760Z,4.68
2023-03-16T18:31:52.270Z,4.60
2023-03-16T18:34:24.043Z,4.93
2023-03-16T18:36:53.663Z,4.28
2023-03-16T18:39:21.799Z,4.78
2023-03-16T18:41:48.827Z,4.68
2023-03-16T18:44:24.455Z,4.72
2023-03-16T18:46:54.535Z,4.13
2023-03-16T18:49:34.230Z,4.60
2023-03-16T18:52:02.387Z,4.88
2023-03-16T18:54:31.520Z,5.03
2023-03-16T18:56:59.043Z,4.93
2023-03-16T18:59:26.825Z,4.90
2023-03-16T19:01:54.095Z,4.68
2023-03-16T19:04:24.650Z,5.00
2023-03-16T19:06:54.156Z,4.82
2023-03-16T19:09:29.433Z,5.60
2023-03-16T19:11:56.582Z,4.85
2023-03-16T19:14:26.848Z,5.30
2023-03-16T19:16:54.783Z,5.65
2023-03-16T19:19:23.595Z,5.50
2023-03-16T19:22:02.305Z,5.55
2023-03-16T19:24:34.608Z,5.47
2023-03-16T19:27:02.315Z,5.63
2023-03-16T19:29:34.585Z,5.68
2023-03-16T19:32:01.413Z,5.30
2023-03-16T19:34:28.928Z,5.47
2023-03-16T19:36:56.178Z,5.78
2023-03-16T19:39:26.467Z,6.00
2023-03-16T19:41:57.814Z,5.85
2023-03-16T19:44:27.455Z,5.80
2023-03-16T19:46:59.443Z,5.97
2023-03-16T19:49:27.410Z,6.35
2023-03-16T19:51:59.129Z,6.15
2023-03-16T19:54:35.333Z,5.72
2023-03-16T19:57:10.534Z,6.50
2023-03-16T19:59:38.314Z,6.55
2023-03-16T20:02:23.140Z,7.18
2023-03-16T20:04:50.011Z,6.90
2023-03-16T20:07:17.474Z,6.57
2023-03-16T20:09:47.884Z,7.00
2023-03-16T20:12:22.772Z,6.80
2023-03-16T20:14:51.442Z,7.70
2023-03-16T20:17:24.349Z,7.25
2023-03-16T20:19:52.237Z,7.80
2023-03-16T20:22:21.673Z,7.15
2023-03-16T20:24:51.097Z,7.97
2023-03-16T20:27:23.348Z,8.23
2023-03-16T20:29:50.825Z,7.78
2023-03-16T20:32:24.014Z,8.18
2023-03-16T20:34:51.795Z,8.45
2023-03-16T20:37:30.045Z,7.32
2023-03-16T20:39:59.346Z,8.25
2023-03-16T20:42:29.969Z,8.50
2023-03-16T20:44:56.690Z,8.90
2023-03-16T20:47:25.995Z,8.05
2023-03-16T20:49:58.676Z,8.80
2023-03-16T20:52:30.635Z,8.88
2023-03-16T20:54:58.522Z,9.15
2023-03-16T20:57:27.368Z,8.68
2023-03-16T20:59:55.805Z,9.77
2023-03-16T21:02:37.139Z,9.07
2023-03-16T21:05:07.138Z,9.57
2023-03-16T21:07:34.171Z,10.35
2023-03-16T21:12:32.123Z,10.50
2023-03-16T21:15:02.496Z,9.65
2023-03-16T21:17:37.276Z,9.98
2023-03-16T21:20:16.084Z,10.68
2023-03-16T21:22:43.382Z,11.13
2023-03-16T21:25:18.922Z,10.35
2023-03-16T21:27:49.897Z,9.85
2023-03-16T21:30:32.958Z,10.15
2023-03-16T21:35:37.349Z,9.90
2023-03-16T21:38:14.828Z,9.60
2023-03-16T21:40:41.625Z,10.10
2023-03-16T21:43:10.745Z,9.98
2023-03-16T21:45:39.495Z,10.43
2023-03-16T21:48:06.566Z,10.45
2023-03-16T21:50:35.397Z,10.20
2023-03-16T21:53:02.498Z,10.80
2023-03-16T21:55:31.573Z,10.20
2023-03-16T22:00:30.701Z,9.82
2023-03-16T22:05:37.779Z,10.20
2023-03-16T22:08:14.795Z,10.07
2023-03-16T22:10:42.156Z,9.82
2023-03-16T22:13:09.669Z,10.80
2023-03-16T22:15:36.965Z,10.30
2023-03-16T22:18:08.807Z,10.45
2023-03-16T22:20:36.717Z,10.02
2023-03-16T22:23:04.349Z,9.63
2023-03-16T22:25:31.391Z,10.10
2023-03-16T22:27:58.312Z,10.35
2023-03-16T22:30:28.696Z,10.77
2023-03-16T22:35:31.751Z,9.82
2023-03-16T22:40:32.571Z,10.45
2023-03-16T22:43:03.193Z,11.25
2023-03-16T22:45:32.779Z,10.63
2023-03-16T22:48:02.617Z,10.10
2023-03-16T22:50:34.452Z,9.82
2023-03-16T22:53:02.932Z,9.75
2023-03-16T22:55:39.346Z,10.35
2023-03-16T22:58:09.058Z,9.40
2023-03-16T23:00:36.353Z,9.93
2023-03-16T23:03:03.416Z,10.02
2023-03-16T23:05:31.291Z,9.27
2023-03-16T23:10:30.574Z,9.50
2023-03-16T23:13:03.862Z,9.05
2023-03-16T23:15:31.240Z,10.18
2023-03-16T23:17:58.337Z,10.20
2023-03-16T23:20:29.123Z,10.05
2023-03-16T23:22:56.016Z,9.25
2023-03-16T23:25:24.116Z,9.25
2023-03-16T23:27:52.789Z,9.00
2023-03-16T23:30:23.839Z,9.32
2023-03-16T23:32:52.433Z,10.30
2023-03-16T23:35:24.821Z,9.63
2023-03-16T23:37:52.614Z,9.70
2023-03-16T23:40:21.728Z,8.90
2023-03-16T23:42:48.946Z,9.18
2023-03-16T23:45:32.410Z,8.73
2023-03-16T23:48:02.504Z,9.23
2023-03-16T23:50:32.327Z,8.68
2023-03-16T23:52:59.352Z,8.82
2023-03-16T23:55:26.788Z,8.43
2023-03-16T23:57:53.740Z,8.35
